N395T KACK-KISP
Flight info
| Callsign | N395T |
|---|---|
| Flight time | 1h 8m |
| Altitude | 12500 |
| Route | KJPX |
| Aircraft | PC12/L-SDFGRWY/S |
Departure
| Time | 2026-04-21 17:36 |
|---|---|
| Airport | Nantucket Memorial Airport (KACK) |
Arrival
| Time | 2026-04-21 18:44 |
|---|---|
| Airport | Long Island MacArthur Airport (KISP) |
| Time | Latitude | Longitude | Altitude | Speed | Heading |
|---|---|---|---|---|---|
| 2026-04-21 17:16 | 41.25577 | -70.06514 | 46 ft | 0 kts | 313° |
| 2026-04-21 17:32 | 41.25578 | -70.06515 | 46 ft | 2 kts | 313° |
| 2026-04-21 17:32 | 41.25557 | -70.06567 | 45 ft | 12 kts | 223° |
| 2026-04-21 17:32 | 41.25493 | -70.06560 | 45 ft | 12 kts | 133° |
| 2026-04-21 17:33 | 41.25439 | -70.06492 | 44 ft | 8 kts | 156° |
| 2026-04-21 17:33 | 41.25380 | -70.06552 | 43 ft | 15 kts | 225° |
| 2026-04-21 17:33 | 41.25294 | -70.06664 | 41 ft | 19 kts | 224° |
| 2026-04-21 17:33 | 41.25200 | -70.06789 | 40 ft | 19 kts | 225° |
| 2026-04-21 17:34 | 41.25103 | -70.06918 | 38 ft | 19 kts | 225° |
| 2026-04-21 17:34 | 41.25025 | -70.07023 | 37 ft | 17 kts | 225° |
| 2026-04-21 17:34 | 41.24939 | -70.07137 | 35 ft | 17 kts | 225° |
| 2026-04-21 17:34 | 41.24858 | -70.07244 | 34 ft | 16 kts | 225° |
| 2026-04-21 17:35 | 41.24807 | -70.07313 | 33 ft | 3 kts | 225° |
| 2026-04-21 17:35 | 41.24764 | -70.07328 | 32 ft | 10 kts | 144° |
| 2026-04-21 17:35 | 41.24730 | -70.07259 | 31 ft | 9 kts | 94° |
| 2026-04-21 17:35 | 41.24833 | -70.07068 | 35 ft | 52 kts | 44° |
| 2026-04-21 17:36 | 41.25197 | -70.06590 | 86 ft | 87 kts | 44° |
| 2026-04-21 17:36 | 41.25678 | -70.05964 | 309 ft | 108 kts | 44° |
| 2026-04-21 17:36 | 41.26289 | -70.05251 | 785 ft | 124 kts | 33° |
| 2026-04-21 17:36 | 41.27118 | -70.04909 | 1310 ft | 132 kts | 2° |
| 2026-04-21 17:37 | 41.28070 | -70.05060 | 1666 ft | 147 kts | 345° |
| 2026-04-21 17:37 | 41.29061 | -70.05635 | 2001 ft | 162 kts | 331° |
| 2026-04-21 17:37 | 41.29977 | -70.06558 | 2459 ft | 168 kts | 315° |
| 2026-04-21 17:37 | 41.30653 | -70.07837 | 2897 ft | 176 kts | 299° |
| 2026-04-21 17:38 | 41.31170 | -70.09384 | 3054 ft | 188 kts | 292° |
| 2026-04-21 17:38 | 41.31636 | -70.11024 | 3360 ft | 190 kts | 291° |
| 2026-04-21 17:38 | 41.32085 | -70.12673 | 3663 ft | 188 kts | 285° |
| 2026-04-21 17:38 | 41.31953 | -70.14389 | 3984 ft | 188 kts | 256° |
| 2026-04-21 17:39 | 41.31626 | -70.16067 | 4328 ft | 187 kts | 258° |
| 2026-04-21 17:39 | 41.31347 | -70.17760 | 4670 ft | 187 kts | 260° |
| 2026-04-21 17:39 | 41.31082 | -70.19454 | 5024 ft | 187 kts | 260° |
| 2026-04-21 17:39 | 41.30817 | -70.21122 | 5364 ft | 187 kts | 260° |
| 2026-04-21 17:40 | 41.30544 | -70.22813 | 5707 ft | 186 kts | 259° |
| 2026-04-21 17:40 | 41.30271 | -70.24502 | 6062 ft | 186 kts | 259° |
| 2026-04-21 17:40 | 41.30002 | -70.26171 | 6402 ft | 186 kts | 259° |
| 2026-04-21 17:40 | 41.29731 | -70.27853 | 6749 ft | 186 kts | 259° |
| 2026-04-21 17:41 | 41.29459 | -70.29535 | 7082 ft | 185 kts | 259° |
| 2026-04-21 17:41 | 41.29189 | -70.31203 | 7414 ft | 184 kts | 260° |
| 2026-04-21 17:41 | 41.28919 | -70.32869 | 7742 ft | 184 kts | 260° |
| 2026-04-21 17:41 | 41.28649 | -70.34531 | 8083 ft | 183 kts | 261° |
| 2026-04-21 17:42 | 41.28380 | -70.36184 | 8400 ft | 185 kts | 261° |
| 2026-04-21 17:42 | 41.28106 | -70.37875 | 8692 ft | 190 kts | 261° |
| 2026-04-21 17:42 | 41.27827 | -70.39595 | 8986 ft | 195 kts | 261° |
| 2026-04-21 17:42 | 41.27538 | -70.41373 | 9283 ft | 198 kts | 261° |
| 2026-04-21 17:43 | 41.27243 | -70.43180 | 9583 ft | 200 kts | 261° |
| 2026-04-21 17:43 | 41.26946 | -70.44997 | 9882 ft | 202 kts | 261° |
| 2026-04-21 17:43 | 41.26646 | -70.46835 | 10192 ft | 204 kts | 262° |
| 2026-04-21 17:43 | 41.26343 | -70.48684 | 10465 ft | 205 kts | 262° |
| 2026-04-21 17:44 | 41.26034 | -70.50587 | 10486 ft | 215 kts | 262° |
| 2026-04-21 17:44 | 41.25715 | -70.52537 | 10488 ft | 221 kts | 261° |
| 2026-04-21 17:44 | 41.25383 | -70.54559 | 10486 ft | 225 kts | 261° |
| 2026-04-21 17:44 | 41.25046 | -70.56603 | 10489 ft | 227 kts | 261° |
| 2026-04-21 17:45 | 41.24706 | -70.58669 | 10487 ft | 228 kts | 261° |
| 2026-04-21 17:45 | 41.24364 | -70.60744 | 10487 ft | 229 kts | 261° |
| 2026-04-21 17:45 | 41.24027 | -70.62787 | 10484 ft | 230 kts | 261° |
| 2026-04-21 17:45 | 41.23685 | -70.64859 | 10486 ft | 230 kts | 261° |
| 2026-04-21 17:46 | 41.23340 | -70.66940 | 10484 ft | 230 kts | 261° |
| 2026-04-21 17:46 | 41.22997 | -70.69015 | 10489 ft | 230 kts | 261° |
| 2026-04-21 17:46 | 41.22651 | -70.71101 | 10485 ft | 230 kts | 261° |
| 2026-04-21 17:46 | 41.22306 | -70.73182 | 10486 ft | 230 kts | 261° |
| 2026-04-21 17:47 | 41.21964 | -70.75240 | 10488 ft | 230 kts | 261° |
| 2026-04-21 17:47 | 41.21618 | -70.77317 | 10486 ft | 230 kts | 261° |
| 2026-04-21 17:47 | 41.21272 | -70.79394 | 10490 ft | 230 kts | 261° |
| 2026-04-21 17:47 | 41.20925 | -70.81476 | 10491 ft | 230 kts | 261° |
| 2026-04-21 17:48 | 41.20696 | -70.82851 | 10489 ft | 230 kts | 261° |
| 2026-04-21 17:48 | 41.20231 | -70.85630 | 10486 ft | 230 kts | 262° |
| 2026-04-21 17:48 | 41.19883 | -70.87710 | 10491 ft | 230 kts | 262° |
| 2026-04-21 17:48 | 41.19541 | -70.89755 | 10488 ft | 230 kts | 261° |
| 2026-04-21 17:49 | 41.19193 | -70.91831 | 10490 ft | 230 kts | 261° |
| 2026-04-21 17:49 | 41.18845 | -70.93904 | 10491 ft | 230 kts | 262° |
| 2026-04-21 17:49 | 41.18496 | -70.95981 | 10494 ft | 230 kts | 262° |
| 2026-04-21 17:49 | 41.18153 | -70.98014 | 10498 ft | 229 kts | 262° |
| 2026-04-21 17:50 | 41.17799 | -71.00119 | 10493 ft | 229 kts | 262° |
| 2026-04-21 17:50 | 41.17455 | -71.02160 | 10494 ft | 229 kts | 262° |
| 2026-04-21 17:50 | 41.17106 | -71.04225 | 10497 ft | 229 kts | 262° |
| 2026-04-21 17:50 | 41.16756 | -71.06293 | 10496 ft | 229 kts | 262° |
| 2026-04-21 17:51 | 41.16406 | -71.08361 | 10500 ft | 229 kts | 262° |
| 2026-04-21 17:51 | 41.16060 | -71.10406 | 10377 ft | 233 kts | 262° |
| 2026-04-21 17:51 | 41.15700 | -71.12540 | 10133 ft | 239 kts | 261° |
| 2026-04-21 17:51 | 41.15330 | -71.14720 | 9893 ft | 242 kts | 261° |
| 2026-04-21 17:52 | 41.14956 | -71.16910 | 9649 ft | 244 kts | 261° |
| 2026-04-21 17:52 | 41.14582 | -71.19106 | 9402 ft | 243 kts | 261° |
| 2026-04-21 17:52 | 41.14212 | -71.21272 | 9160 ft | 238 kts | 261° |
| 2026-04-21 17:52 | 41.13850 | -71.23395 | 8919 ft | 235 kts | 261° |
| 2026-04-21 17:53 | 41.13485 | -71.25492 | 8676 ft | 232 kts | 258° |
| 2026-04-21 17:53 | 41.12880 | -71.27454 | 8522 ft | 231 kts | 248° |
| 2026-04-21 17:53 | 41.12152 | -71.29330 | 8521 ft | 226 kts | 246° |
| 2026-04-21 17:53 | 41.11420 | -71.31166 | 8517 ft | 223 kts | 246° |
| 2026-04-21 17:54 | 41.10697 | -71.32971 | 8519 ft | 221 kts | 246° |
| 2026-04-21 17:54 | 41.09978 | -71.34764 | 8515 ft | 220 kts | 246° |
| 2026-04-21 17:54 | 41.09259 | -71.36554 | 8514 ft | 220 kts | 246° |
| 2026-04-21 17:54 | 41.08547 | -71.38323 | 8514 ft | 219 kts | 246° |
| 2026-04-21 17:55 | 41.07824 | -71.40125 | 8369 ft | 225 kts | 246° |
| 2026-04-21 17:55 | 41.07086 | -71.41986 | 8131 ft | 230 kts | 246° |
| 2026-04-21 17:55 | 41.06343 | -71.43882 | 7899 ft | 233 kts | 246° |
| 2026-04-21 17:55 | 41.05597 | -71.45805 | 7669 ft | 235 kts | 246° |
| 2026-04-21 17:56 | 41.04856 | -71.47737 | 7434 ft | 236 kts | 246° |
| 2026-04-21 17:56 | 41.04137 | -71.49690 | 7205 ft | 236 kts | 248° |
| 2026-04-21 17:56 | 41.03490 | -71.51688 | 6978 ft | 235 kts | 250° |
| 2026-04-21 17:56 | 41.02871 | -71.53699 | 6748 ft | 235 kts | 251° |
| 2026-04-21 17:57 | 41.02352 | -71.55738 | 6525 ft | 233 kts | 255° |
| 2026-04-21 17:57 | 41.01892 | -71.57736 | 6517 ft | 226 kts | 255° |
| 2026-04-21 17:57 | 41.01442 | -71.59710 | 6516 ft | 222 kts | 255° |
| 2026-04-21 17:57 | 41.00997 | -71.61661 | 6515 ft | 220 kts | 255° |
| 2026-04-21 17:58 | 41.00555 | -71.63597 | 6519 ft | 218 kts | 255° |
| 2026-04-21 17:58 | 41.00117 | -71.65517 | 6510 ft | 217 kts | 255° |
| 2026-04-21 17:58 | 40.99679 | -71.67433 | 6515 ft | 217 kts | 255° |
| 2026-04-21 17:58 | 40.99248 | -71.69317 | 6510 ft | 216 kts | 255° |
| 2026-04-21 17:59 | 40.98811 | -71.71228 | 6499 ft | 216 kts | 255° |
| 2026-04-21 17:59 | 40.98375 | -71.73130 | 6500 ft | 216 kts | 255° |
| 2026-04-21 17:59 | 40.97937 | -71.75041 | 6506 ft | 216 kts | 255° |
| 2026-04-21 17:59 | 40.97505 | -71.76918 | 6507 ft | 216 kts | 255° |
| 2026-04-21 18:00 | 40.97068 | -71.78816 | 6498 ft | 216 kts | 255° |
| 2026-04-21 18:00 | 40.96630 | -71.80718 | 6506 ft | 215 kts | 255° |
| 2026-04-21 18:00 | 40.96189 | -71.82636 | 6337 ft | 222 kts | 255° |
| 2026-04-21 18:00 | 40.95737 | -71.84625 | 6074 ft | 229 kts | 255° |
| 2026-04-21 18:01 | 40.95282 | -71.86663 | 5810 ft | 233 kts | 255° |
| 2026-04-21 18:01 | 40.94826 | -71.88735 | 5547 ft | 234 kts | 255° |
| 2026-04-21 18:01 | 40.94381 | -71.90776 | 5287 ft | 234 kts | 255° |
| 2026-04-21 18:01 | 40.93932 | -71.92853 | 5018 ft | 234 kts | 255° |
| 2026-04-21 18:02 | 40.93638 | -71.94225 | 4833 ft | 233 kts | 255° |
| 2026-04-21 18:02 | 40.93086 | -71.97002 | 4472 ft | 232 kts | 259° |
| 2026-04-21 18:02 | 40.92820 | -71.99080 | 4207 ft | 232 kts | 262° |
| 2026-04-21 18:02 | 40.92584 | -72.01197 | 3941 ft | 232 kts | 262° |
| 2026-04-21 18:03 | 40.92359 | -72.03313 | 3672 ft | 232 kts | 262° |
| 2026-04-21 18:03 | 40.92145 | -72.05420 | 3392 ft | 228 kts | 262° |
| 2026-04-21 18:03 | 40.91948 | -72.07443 | 3124 ft | 215 kts | 262° |
| 2026-04-21 18:03 | 40.91820 | -72.09277 | 2911 ft | 188 kts | 266° |
| 2026-04-21 18:04 | 40.91778 | -72.11031 | 2741 ft | 193 kts | 269° |
| 2026-04-21 18:04 | 40.91765 | -72.12813 | 2595 ft | 195 kts | 269° |
| 2026-04-21 18:04 | 40.91767 | -72.14607 | 2473 ft | 195 kts | 270° |
| 2026-04-21 18:04 | 40.91787 | -72.16382 | 2323 ft | 187 kts | 270° |
| 2026-04-21 18:05 | 40.91832 | -72.18016 | 2121 ft | 168 kts | 271° |
| 2026-04-21 18:05 | 40.91901 | -72.19493 | 1912 ft | 158 kts | 272° |
| 2026-04-21 18:05 | 40.92002 | -72.20903 | 1709 ft | 146 kts | 277° |
| 2026-04-21 18:05 | 40.92219 | -72.22118 | 1589 ft | 127 kts | 286° |
| 2026-04-21 18:06 | 40.92546 | -72.23177 | 1501 ft | 122 kts | 296° |
| 2026-04-21 18:06 | 40.92972 | -72.24106 | 1320 ft | 117 kts | 303° |
| 2026-04-21 18:06 | 40.93487 | -72.24927 | 1148 ft | 116 kts | 311° |
| 2026-04-21 18:06 | 40.94016 | -72.25691 | 1041 ft | 106 kts | 306° |
| 2026-04-21 18:07 | 40.94455 | -72.26422 | 877 ft | 98 kts | 313° |
| 2026-04-21 18:07 | 40.95032 | -72.26895 | 659 ft | 98 kts | 345° |
| 2026-04-21 18:07 | 40.95664 | -72.26781 | 421 ft | 92 kts | 40° |
| 2026-04-21 18:07 | 40.95889 | -72.26046 | 126 ft | 87 kts | 89° |
| 2026-04-21 18:08 | 40.95898 | -72.25328 | 48 ft | 67 kts | 89° |
| 2026-04-21 18:08 | 40.95904 | -72.24953 | 36 ft | 24 kts | 89° |
| 2026-04-21 18:08 | 40.95907 | -72.24810 | 35 ft | 9 kts | 68° |
| 2026-04-21 18:08 | 40.95971 | -72.24824 | 35 ft | 13 kts | 328° |
| 2026-04-21 18:09 | 40.96037 | -72.24877 | 38 ft | 9 kts | 325° |
| 2026-04-21 18:09 | 40.96046 | -72.24937 | 40 ft | 8 kts | 300° |
| 2026-04-21 18:09 | 40.96078 | -72.24966 | 41 ft | 9 kts | 330° |
| 2026-04-21 18:09 | 40.96128 | -72.24913 | 42 ft | 4 kts | 76° |
| 2026-04-21 18:10 | 40.96117 | -72.24897 | 42 ft | 4 kts | 152° |
| 2026-04-21 18:10 | 40.96112 | -72.24894 | 42 ft | 0 kts | 152° |
| 2026-04-21 18:25 | 40.96109 | -72.24892 | 42 ft | 3 kts | 152° |
| 2026-04-21 18:25 | 40.96085 | -72.24917 | 41 ft | 7 kts | 236° |
| 2026-04-21 18:25 | 40.96049 | -72.24948 | 40 ft | 7 kts | 211° |
| 2026-04-21 18:26 | 40.95994 | -72.24941 | 38 ft | 11 kts | 152° |
| 2026-04-21 18:26 | 40.95924 | -72.24891 | 35 ft | 8 kts | 179° |
| 2026-04-21 18:26 | 40.95904 | -72.24991 | 37 ft | 23 kts | 269° |
| 2026-04-21 18:26 | 40.95901 | -72.25253 | 48 ft | 28 kts | 268° |
| 2026-04-21 18:27 | 40.95897 | -72.25502 | 50 ft | 26 kts | 269° |
| 2026-04-21 18:27 | 40.95894 | -72.25709 | 56 ft | 20 kts | 269° |
| 2026-04-21 18:27 | 40.95892 | -72.25882 | 56 ft | 18 kts | 269° |
| 2026-04-21 18:27 | 40.95900 | -72.26001 | 57 ft | 8 kts | 303° |
| 2026-04-21 18:28 | 40.95890 | -72.26013 | 57 ft | 1 kts | 92° |
| 2026-04-21 18:28 | 40.95890 | -72.25978 | 56 ft | 15 kts | 89° |
| 2026-04-21 18:28 | 40.95895 | -72.25650 | 55 ft | 66 kts | 89° |
| 2026-04-21 18:28 | 40.95907 | -72.24826 | 136 ft | 103 kts | 89° |
| 2026-04-21 18:29 | 40.95918 | -72.23848 | 537 ft | 116 kts | 89° |
| 2026-04-21 18:29 | 40.96209 | -72.22760 | 1083 ft | 131 kts | 53° |
| 2026-04-21 18:29 | 40.97028 | -72.22113 | 1484 ft | 155 kts | 11° |
| 2026-04-21 18:29 | 40.98159 | -72.22235 | 1885 ft | 173 kts | 342° |
| 2026-04-21 18:30 | 40.99279 | -72.22925 | 2365 ft | 180 kts | 325° |
| 2026-04-21 18:30 | 41.00198 | -72.24069 | 2813 ft | 184 kts | 307° |
| 2026-04-21 18:30 | 41.00990 | -72.25453 | 3121 ft | 195 kts | 305° |
| 2026-04-21 18:30 | 41.01820 | -72.27021 | 2988 ft | 218 kts | 300° |
| 2026-04-21 18:31 | 41.02523 | -72.28824 | 2861 ft | 228 kts | 294° |
| 2026-04-21 18:31 | 41.03128 | -72.30799 | 2735 ft | 234 kts | 285° |
| 2026-04-21 18:31 | 41.03492 | -72.32879 | 2604 ft | 237 kts | 276° |
| 2026-04-21 18:31 | 41.03676 | -72.35093 | 2509 ft | 236 kts | 274° |
| 2026-04-21 18:32 | 41.03823 | -72.37251 | 2508 ft | 234 kts | 274° |
| 2026-04-21 18:32 | 41.03846 | -72.39384 | 2511 ft | 229 kts | 259° |
| 2026-04-21 18:32 | 41.03262 | -72.41280 | 2504 ft | 224 kts | 242° |
| 2026-04-21 18:32 | 41.02583 | -72.43142 | 2503 ft | 224 kts | 244° |
| 2026-04-21 18:33 | 41.01947 | -72.45024 | 2510 ft | 223 kts | 245° |
| 2026-04-21 18:33 | 41.01320 | -72.46904 | 2505 ft | 223 kts | 245° |
| 2026-04-21 18:33 | 41.00685 | -72.48779 | 2506 ft | 224 kts | 244° |
| 2026-04-21 18:33 | 41.00044 | -72.50660 | 2521 ft | 224 kts | 244° |
| 2026-04-21 18:34 | 40.99403 | -72.52539 | 2514 ft | 223 kts | 244° |
| 2026-04-21 18:34 | 40.98774 | -72.54387 | 2511 ft | 223 kts | 245° |
| 2026-04-21 18:34 | 40.98163 | -72.56180 | 2513 ft | 221 kts | 245° |
| 2026-04-21 18:34 | 40.97532 | -72.58032 | 2518 ft | 220 kts | 244° |
| 2026-04-21 18:35 | 40.97113 | -72.59258 | 2519 ft | 221 kts | 244° |
| 2026-04-21 18:35 | 40.96262 | -72.61750 | 2518 ft | 222 kts | 244° |
| 2026-04-21 18:35 | 40.95631 | -72.63596 | 2514 ft | 220 kts | 244° |
| 2026-04-21 18:35 | 40.95001 | -72.65438 | 2514 ft | 220 kts | 244° |
| 2026-04-21 18:36 | 40.94367 | -72.67293 | 2514 ft | 219 kts | 244° |
| 2026-04-21 18:36 | 40.93740 | -72.69122 | 2516 ft | 216 kts | 244° |
| 2026-04-21 18:36 | 40.93124 | -72.70922 | 2507 ft | 212 kts | 244° |
| 2026-04-21 18:36 | 40.92527 | -72.72664 | 2512 ft | 210 kts | 244° |
| 2026-04-21 18:37 | 40.91922 | -72.74423 | 2512 ft | 209 kts | 244° |
| 2026-04-21 18:37 | 40.91321 | -72.76175 | 2505 ft | 208 kts | 244° |
| 2026-04-21 18:37 | 40.90723 | -72.77917 | 2501 ft | 207 kts | 244° |
| 2026-04-21 18:37 | 40.90136 | -72.79624 | 2498 ft | 206 kts | 244° |
| 2026-04-21 18:38 | 40.89548 | -72.81333 | 2496 ft | 206 kts | 244° |
| 2026-04-21 18:38 | 40.88951 | -72.83068 | 2496 ft | 205 kts | 244° |
| 2026-04-21 18:38 | 40.88381 | -72.84723 | 2494 ft | 205 kts | 244° |
| 2026-04-21 18:38 | 40.87856 | -72.86477 | 2492 ft | 204 kts | 250° |
| 2026-04-21 18:39 | 40.87507 | -72.88278 | 2499 ft | 205 kts | 256° |
| 2026-04-21 18:39 | 40.87244 | -72.90130 | 2498 ft | 205 kts | 258° |
| 2026-04-21 18:39 | 40.86993 | -72.91983 | 2499 ft | 205 kts | 257° |
| 2026-04-21 18:39 | 40.86741 | -72.93846 | 2433 ft | 208 kts | 258° |
| 2026-04-21 18:40 | 40.86482 | -72.95745 | 2302 ft | 211 kts | 258° |
| 2026-04-21 18:40 | 40.86224 | -72.97656 | 2177 ft | 212 kts | 258° |
| 2026-04-21 18:40 | 40.86054 | -72.98925 | 2095 ft | 213 kts | 258° |
| 2026-04-21 18:40 | 40.85718 | -73.01434 | 1893 ft | 203 kts | 258° |
| 2026-04-21 18:41 | 40.85495 | -73.03170 | 1750 ft | 177 kts | 259° |
| 2026-04-21 18:41 | 40.85317 | -73.04652 | 1672 ft | 151 kts | 258° |
| 2026-04-21 18:41 | 40.85170 | -73.05979 | 1500 ft | 141 kts | 259° |
| 2026-04-21 18:41 | 40.85035 | -73.07237 | 1389 ft | 128 kts | 255° |
| 2026-04-21 18:42 | 40.84843 | -73.08253 | 1387 ft | 112 kts | 248° |
| 2026-04-21 18:42 | 40.84526 | -73.09187 | 1266 ft | 114 kts | 239° |
| 2026-04-21 18:42 | 40.84100 | -73.10075 | 1143 ft | 111 kts | 232° |
| 2026-04-21 18:42 | 40.83643 | -73.10898 | 985 ft | 113 kts | 229° |
| 2026-04-21 18:43 | 40.83164 | -73.11645 | 851 ft | 100 kts | 220° |
| 2026-04-21 18:43 | 40.82572 | -73.12121 | 767 ft | 100 kts | 196° |
| 2026-04-21 18:43 | 40.81900 | -73.12242 | 644 ft | 88 kts | 176° |
| 2026-04-21 18:43 | 40.81348 | -73.12026 | 468 ft | 81 kts | 151° |
| 2026-04-21 18:44 | 40.80906 | -73.11613 | 322 ft | 78 kts | 139° |
| 2026-04-21 18:44 | 40.80514 | -73.11112 | 214 ft | 78 kts | 135° |
| 2026-04-21 18:44 | 40.80148 | -73.10631 | 95 ft | 67 kts | 135° |
| 2026-04-21 18:44 | 40.79902 | -73.10309 | 94 ft | 31 kts | 135° |
| 2026-04-21 18:45 | 40.79827 | -73.10215 | 94 ft | 9 kts | 150° |
| 2026-04-21 18:45 | 40.79773 | -73.10254 | 92 ft | 8 kts | 224° |
| 2026-04-21 18:45 | 40.79752 | -73.10326 | 92 ft | 12 kts | 310° |
| 2026-04-21 18:45 | 40.79826 | -73.10421 | 91 ft | 18 kts | 315° |
| 2026-04-21 18:46 | 40.79924 | -73.10548 | 91 ft | 22 kts | 315° |
| 2026-04-21 18:46 | 40.80012 | -73.10665 | 91 ft | 11 kts | 311° |
| 2026-04-21 18:46 | 40.79991 | -73.10719 | 91 ft | 10 kts | 184° |
| 2026-04-21 18:46 | 40.79920 | -73.10720 | 93 ft | 11 kts | 180° |
| 2026-04-21 18:47 | 40.79843 | -73.10720 | 91 ft | 9 kts | 180° |
| 2026-04-21 18:47 | 40.79802 | -73.10767 | 91 ft | 11 kts | 270° |
| 2026-04-21 18:47 | 40.79802 | -73.10864 | 91 ft | 3 kts | 269° |
| 2026-04-21 18:47 | 40.79804 | -73.10913 | 91 ft | 5 kts | 306° |
| 2026-04-21 18:48 | 40.79822 | -73.10907 | 91 ft | 3 kts | 85° |
| 2026-04-21 18:48 | 40.79822 | -73.10898 | 91 ft | 0 kts | 88° |